Time;durP1;ratioP1;P1;durP2;ratioP2;P2;SDS_P1;SDS_P2;PMS_P1;PMS_P2;Temp;Humidity;BMP_temperature;BMP_pressure;BME280_temperature;BME280_humidity;BME280_pressure;Samples;Min_cycle;Max_cycle;Signal;HPM_P1;HPM_P2
2024/03/05 00:02:19;;;;;;;12.63;10.83;;;;;;;7.37;100.00;101469.78;7771548;22;20214;-66
2024/03/05 00:05:40;;;;;;;14.07;10.50;;;;;;;7.23;100.00;101469.84;7769473;22;20214;-66
2024/03/05 00:09:02;;;;;;;15.63;12.20;;;;;;;7.23;100.00;101468.03;7753377;22;20564;-66
2024/03/05 00:12:23;;;;;;;13.70;11.03;;;;;;;7.41;100.00;101473.97;7763803;22;20210;-66
2024/03/05 00:15:45;;;;;;;14.00;10.77;;;;;;;7.26;100.00;101472.28;7770202;22;20214;-65
2024/03/05 00:19:08;;;;;;;18.07;11.83;;;;;;;7.37;100.00;101466.22;7750121;22;20214;-66
2024/03/05 00:22:29;;;;;;;13.77;11.23;;;;;;;7.31;100.00;101470.19;7769715;22;20568;-67
2024/03/05 00:25:50;;;;;;;13.37;10.37;;;;;;;7.25;100.00;101467.91;7768085;22;20222;-66
2024/03/05 00:29:11;;;;;;;15.90;11.77;;;;;;;7.26;100.00;101466.94;7775735;22;20772;-65
2024/03/05 00:32:32;;;;;;;15.30;10.50;;;;;;;7.33;100.00;101470.94;7759628;22;20218;-66
2024/03/05 00:35:54;;;;;;;12.90;10.93;;;;;;;7.33;100.00;101468.25;7767286;22;20442;-66
2024/03/05 00:39:15;;;;;;;15.57;10.50;;;;;;;7.20;100.00;101461.97;7772666;22;20459;-65
2024/03/05 00:42:36;;;;;;;12.80;11.50;;;;;;;6.93;100.00;101466.44;7747696;22;20210;-66
2024/03/05 00:45:57;;;;;;;11.67;10.47;;;;;;;6.97;100.00;101474.19;7762234;22;20214;-65
2024/03/05 00:49:18;;;;;;;17.90;11.10;;;;;;;7.00;100.00;101471.34;7773214;22;20321;-66
2024/03/05 00:52:40;;;;;;;13.07;10.93;;;;;;;7.01;100.00;101465.00;7766594;22;20210;-66
2024/03/05 00:56:01;;;;;;;11.37;10.27;;;;;;;7.03;100.00;101456.88;7771216;22;20218;-66
2024/03/05 00:59:22;;;;;;;14.63;9.87;;;;;;;7.02;100.00;101456.00;7762347;22;20271;-65
2024/03/05 01:02:43;;;;;;;14.13;11.10;;;;;;;7.07;100.00;101453.88;7768365;22;20210;-65
2024/03/05 01:06:04;;;;;;;12.23;10.90;;;;;;;7.15;100.00;101456.91;7766580;22;20222;-66
2024/03/05 01:09:27;;;;;;;13.23;11.83;;;;;;;7.15;100.00;101454.22;7773903;22;20254;-66
2024/03/05 01:12:48;;;;;;;18.10;13.47;;;;;;;7.09;100.00;101461.84;7766771;22;20222;-66
2024/03/05 01:16:10;;;;;;;12.50;9.90;;;;;;;7.15;100.00;101450.72;7764997;22;20218;-65
2024/03/05 01:19:31;;;;;;;10.57;8.77;;;;;;;7.02;100.00;101450.66;7772252;22;20719;-66
2024/03/05 01:22:52;;;;;;;12.40;10.73;;;;;;;7.02;100.00;101449.78;7768949;22;20210;-66
2024/03/05 01:26:15;;;;;;;20.10;11.13;;;;;;;7.05;100.00;101449.59;7750115;22;20218;-66
2024/03/05 01:29:35;;;;;;;15.50;12.50;;;;;;;6.99;100.00;101447.28;7776563;22;20285;-67
2024/03/05 01:32:57;;;;;;;11.03;9.97;;;;;;;7.04;100.00;101454.09;7744882;22;20481;-67
2024/03/05 01:36:19;;;;;;;10.30;9.40;;;;;;;7.00;100.00;101444.53;7767888;22;20210;-66
2024/03/05 01:39:41;;;;;;;15.53;10.87;;;;;;;6.84;100.00;101450.97;7773899;22;20210;-66
2024/03/05 01:43:03;;;;;;;12.40;9.93;;;;;;;6.90;100.00;101445.22;7770293;22;20290;-66
2024/03/05 01:46:26;;;;;;;18.23;10.00;;;;;;;7.08;100.00;101452.06;7761056;22;20308;-66
2024/03/05 01:49:48;;;;;;;15.47;9.43;;;;;;;7.00;100.00;101449.03;7773297;22;20214;-66
2024/03/05 01:53:14;;;;;;;34.80;12.00;;;;;;;6.71;100.00;101450.91;7771468;22;20222;-67
2024/03/05 01:56:35;;;;;;;13.80;10.00;;;;;;;6.79;100.00;101461.13;7769577;22;20222;-67
2024/03/05 01:59:57;;;;;;;13.20;10.60;;;;;;;6.69;100.00;101459.97;7776174;22;20280;-67
2024/03/05 02:03:20;;;;;;;16.63;11.10;;;;;;;6.48;100.00;101451.50;7775918;22;20202;-65
2024/03/05 02:06:43;;;;;;;11.90;10.23;;;;;;;6.60;100.00;101452.53;7768800;22;20218;-66
2024/03/05 02:10:07;;;;;;;13.23;11.13;;;;;;;6.64;100.00;101456.72;7774622;22;20218;-66
2024/03/05 02:13:28;;;;;;;12.27;10.70;;;;;;;6.75;100.00;101456.91;7774513;22;20568;-67
2024/03/05 02:16:52;;;;;;;12.80;11.50;;;;;;;6.85;100.00;101450.88;7765334;22;20215;-66
2024/03/05 02:20:13;;;;;;;18.27;11.03;;;;;;;6.65;100.00;101453.09;7766072;22;20214;-65
2024/03/05 02:23:35;;;;;;;14.20;10.43;;;;;;;6.79;100.00;101453.94;7773578;22;20633;-66
2024/03/05 02:26:56;;;;;;;13.30;10.37;;;;;;;6.75;100.00;101451.56;7755094;22;20218;-66
2024/03/05 02:30:17;;;;;;;13.40;11.63;;;;;;;6.61;100.00;101454.25;7763309;22;20452;-65
2024/03/05 02:33:40;;;;;;;15.63;10.77;;;;;;;6.68;100.00;101458.25;7769564;22;20210;-66
2024/03/05 02:37:01;;;;;;;15.37;12.13;;;;;;;6.59;100.00;101456.16;7765383;22;20293;-66
2024/03/05 02:40:24;;;;;;;16.23;12.33;;;;;;;6.58;100.00;101465.16;7767095;22;20572;-65
2024/03/05 02:43:45;;;;;;;17.53;10.20;;;;;;;6.53;100.00;101461.91;7768945;22;20214;-66
2024/03/05 02:47:06;;;;;;;26.67;11.70;;;;;;;6.66;100.00;101462.84;7760481;22;20214;-66
2024/03/05 02:50:27;;;;;;;14.03;11.00;;;;;;;6.61;100.00;101459.63;7752580;22;20215;-67
2024/03/05 02:53:48;;;;;;;13.87;10.60;;;;;;;6.54;100.00;101459.13;7771810;22;20218;-66
2024/03/05 02:57:11;;;;;;;11.63;9.57;;;;;;;6.48;100.00;101459.53;7765076;22;20214;-66
2024/03/05 03:00:31;;;;;;;12.10;10.27;;;;;;;6.50;100.00;101462.97;7743049;22;20280;-65
2024/03/05 03:03:52;;;;;;;11.60;10.33;;;;;;;6.48;100.00;101464.88;7767436;22;20772;-66
2024/03/05 03:07:13;;;;;;;17.37;11.77;;;;;;;6.65;100.00;101466.50;7768463;22;20218;-66
2024/03/05 03:10:34;;;;;;;10.90;9.70;;;;;;;6.53;100.00;101461.91;7764320;22;20218;-66
2024/03/05 03:13:56;;;;;;;11.73;10.60;;;;;;;6.60;100.00;101468.59;7776167;22;20305;-66
2024/03/05 03:17:18;;;;;;;14.10;11.83;;;;;;;6.60;100.00;101465.91;7765463;22;20214;-66
2024/03/05 03:20:39;;;;;;;15.90;11.20;;;;;;;6.75;100.00;101467.63;7765132;22;20679;-66
2024/03/05 03:24:00;;;;;;;13.90;10.00;;;;;;;6.60;100.00;101468.59;7777217;22;20222;-66
2024/03/05 03:27:23;;;;;;;14.43;10.40;;;;;;;6.56;100.00;101469.75;7770054;22;20214;-66
2024/03/05 03:30:45;;;;;;;18.40;10.87;;;;;;;6.61;100.00;101476.56;7770576;22;20285;-65
2024/03/05 03:34:06;;;;;;;15.80;11.13;;;;;;;6.64;100.00;101480.84;7771345;22;20218;-66
2024/03/05 03:37:29;;;;;;;13.50;11.37;;;;;;;6.70;100.00;101477.75;7767703;22;20248;-66
2024/03/05 03:40:51;;;;;;;14.77;9.30;;;;;;;6.60;100.00;101481.97;7768067;22;20222;-66
2024/03/05 03:44:12;;;;;;;12.77;10.50;;;;;;;6.38;100.00;101469.09;7777778;22;20293;-65
2024/03/05 03:47:34;;;;;;;14.80;10.87;;;;;;;6.31;100.00;101478.44;7761013;22;20725;-66
2024/03/05 03:50:55;;;;;;;11.43;9.67;;;;;;;6.44;100.00;101474.94;7767787;22;20219;-66
2024/03/05 03:54:16;;;;;;;16.13;10.53;;;;;;;6.23;100.00;101481.59;7778132;22;20210;-67
2024/03/05 03:57:37;;;;;;;14.40;12.00;;;;;;;6.41;100.00;101476.91;7772174;22;20568;-67
2024/03/05 04:00:59;;;;;;;18.73;11.77;;;;;;;6.27;100.00;101483.13;7768499;22;20572;-66
2024/03/05 04:04:23;;;;;;;13.60;12.00;;;;;;;6.34;100.00;101488.97;7776675;22;20210;-66
2024/03/05 04:07:44;;;;;;;14.17;10.87;;;;;;;6.39;100.00;101490.41;7766623;22;20485;-66
2024/03/05 04:11:06;;;;;;;11.10;10.00;;;;;;;6.17;100.00;101495.38;7772537;22;20210;-67
2024/03/05 04:14:27;;;;;;;12.20;10.93;;;;;;;6.30;100.00;101501.66;7776811;22;20612;-67
2024/03/05 04:17:48;;;;;;;12.33;9.53;;;;;;;6.52;100.00;101497.66;7764272;22;20509;-66
2024/03/05 04:21:10;;;;;;;14.27;9.83;;;;;;;6.42;100.00;101498.22;7769513;22;20261;-66
2024/03/05 04:24:31;;;;;;;18.23;10.90;;;;;;;6.11;100.00;101506.41;7774389;22;20234;-67
2024/03/05 04:27:52;;;;;;;15.63;11.40;;;;;;;6.12;100.00;101507.28;7770529;22;20218;-66
2024/03/05 04:31:14;;;;;;;13.23;11.10;;;;;;;6.18;100.00;101513.13;7770475;22;20206;-66
2024/03/05 04:34:39;;;;;;;13.40;10.20;;;;;;;6.24;100.00;101519.91;7773931;22;20219;-65
2024/03/05 04:38:01;;;;;;;10.57;9.30;;;;;;;6.21;100.00;101518.31;7769576;22;20585;-66
2024/03/05 04:41:22;;;;;;;13.30;10.43;;;;;;;6.18;100.00;101517.63;7771440;22;20218;-66
2024/03/05 04:44:43;;;;;;;14.57;11.30;;;;;;;5.94;100.00;101525.31;7780522;22;20214;-66
2024/03/05 04:48:05;;;;;;;11.27;9.80;;;;;;;5.86;100.00;101526.72;7761190;22;20601;-66
2024/03/05 04:51:26;;;;;;;13.80;10.50;;;;;;;5.95;100.00;101535.03;7776729;22;20260;-65
2024/03/05 04:54:48;;;;;;;13.23;10.30;;;;;;;6.04;100.00;101525.63;7781728;22;20214;-65
2024/03/05 04:58:09;;;;;;;19.03;11.37;;;;;;;6.03;100.00;101546.16;7778327;22;20214;-66
2024/03/05 05:01:30;;;;;;;15.37;11.87;;;;;;;6.11;100.00;101538.53;7770299;22;20218;-65
2024/03/05 05:04:51;;;;;;;15.03;10.80;;;;;;;6.23;100.00;101536.94;7779675;22;20218;-64
2024/03/05 05:08:12;;;;;;;13.30;9.73;;;;;;;6.21;100.00;101539.72;7778839;22;20209;-67
2024/03/05 05:11:35;;;;;;;15.83;11.77;;;;;;;6.28;100.00;101542.88;7774926;22;20202;-65
2024/03/05 05:14:56;;;;;;;12.33;10.47;;;;;;;5.88;100.00;101544.41;7765924;22;20623;-65
2024/03/05 05:18:18;;;;;;;15.00;11.17;;;;;;;6.00;100.00;101545.47;7776522;22;20210;-65
2024/03/05 05:21:41;;;;;;;12.83;11.20;;;;;;;6.02;100.00;101547.13;7777417;22;20222;-65
2024/03/05 05:25:02;;;;;;;13.70;10.97;;;;;;;5.93;100.00;101550.34;7781949;22;20564;-65
2024/03/05 05:28:24;;;;;;;22.00;14.77;;;;;;;6.10;100.00;101557.38;7782204;22;20206;-67
2024/03/05 05:31:45;;;;;;;15.83;13.90;;;;;;;6.10;100.00;101550.19;7775819;22;20298;-67
2024/03/05 05:35:07;;;;;;;19.80;16.60;;;;;;;5.92;100.00;101548.63;7775073;22;20473;-65
2024/03/05 05:38:29;;;;;;;16.47;13.33;;;;;;;6.11;100.00;101548.41;7779449;22;20203;-65
2024/03/05 05:41:50;;;;;;;15.53;11.50;;;;;;;6.24;100.00;101555.59;7756196;22;20214;-66
2024/03/05 05:45:12;;;;;;;11.40;10.20;;;;;;;6.22;100.00;101557.50;7769999;22;20218;-66
2024/03/05 05:48:33;;;;;;;16.93;15.23;;;;;;;6.28;100.00;101556.25;7773774;22;20552;-65
2024/03/05 05:51:54;;;;;;;13.90;12.23;;;;;;;6.34;100.00;101556.75;7771225;22;20293;-68
2024/03/05 05:55:15;;;;;;;12.77;11.37;;;;;;;6.28;100.00;101564.28;7772224;22;20206;-65
2024/03/05 05:58:36;;;;;;;17.47;11.30;;;;;;;6.34;100.00;101555.91;7757415;22;20210;-67
2024/03/05 06:01:58;;;;;;;19.40;10.90;;;;;;;6.36;100.00;101562.88;7767950;22;20473;-68
2024/03/05 06:05:20;;;;;;;11.10;9.57;;;;;;;6.22;100.00;101567.34;7775336;22;20268;-66
2024/03/05 06:08:40;;;;;;;19.03;11.17;;;;;;;6.06;100.00;101577.22;7776343;22;20780;-67
2024/03/05 06:12:02;;;;;;;15.70;12.30;;;;;;;6.16;100.00;101573.06;7774242;22;20214;-67
2024/03/05 06:15:27;;;;;;;9.83;8.80;;;;;;;6.28;100.00;101580.34;7776227;22;20206;-66
2024/03/05 06:18:50;;;;;;;17.57;9.87;;;;;;;6.30;100.00;101587.34;7776609;22;20615;-67
2024/03/05 06:22:11;;;;;;;12.37;11.00;;;;;;;6.27;100.00;101590.22;7770842;22;20253;-68
2024/03/05 06:25:33;;;;;;;13.50;10.47;;;;;;;6.11;100.00;101592.06;7770357;22;20206;-67
2024/03/05 06:28:54;;;;;;;14.47;10.93;;;;;;;6.07;100.00;101587.84;7774997;22;20286;-68
2024/03/05 06:32:16;;;;;;;12.93;11.63;;;;;;;6.24;100.00;101598.41;7769740;22;20214;-67
2024/03/05 06:35:38;;;;;;;14.83;11.93;;;;;;;6.18;100.00;101593.44;7769861;22;20284;-68
2024/03/05 06:39:00;;;;;;;13.43;10.37;;;;;;;6.26;100.00;101599.19;7774954;22;20301;-67
2024/03/05 06:42:24;;;;;;;11.67;10.07;;;;;;;6.30;100.00;101595.38;7774164;22;20214;-68
2024/03/05 06:45:46;;;;;;;13.30;11.43;;;;;;;6.20;100.00;101601.38;7771515;22;20281;-69
2024/03/05 06:49:08;;;;;;;12.77;9.23;;;;;;;6.06;100.00;101602.19;7759199;22;20219;-68
2024/03/05 06:59:59;;;;;;;11.70;9.67;;;;;;;6.12;100.00;101614.34;7606731;22;20217;-68
2024/03/05 07:03:20;;;;;;;12.57;9.97;;;;;;;6.29;100.00;101611.53;7777621;22;20214;-68
2024/03/05 07:06:40;;;;;;;14.90;9.50;;;;;;;6.40;100.00;101614.44;7772254;22;20532;-69
2024/03/05 07:10:13;;;;;;;13.90;10.53;;;;;;;6.41;100.00;101619.72;7779037;22;20218;-68
2024/03/05 07:13:34;;;;;;;12.73;9.83;;;;;;;6.33;100.00;101619.31;7781729;22;20243;-67
2024/03/05 07:16:55;;;;;;;14.43;9.40;;;;;;;6.03;100.00;101633.63;7774954;22;20564;-68
2024/03/05 07:20:22;;;;;;;13.87;9.90;;;;;;;6.20;100.00;101628.13;7774283;22;20213;-67
2024/03/05 07:23:44;;;;;;;17.07;10.87;;;;;;;6.24;100.00;101632.34;7780851;22;20856;-68
2024/03/05 07:27:06;;;;;;;11.87;10.67;;;;;;;6.24;100.00;101622.50;7777258;22;20218;-68
2024/03/05 07:30:27;;;;;;;13.07;9.47;;;;;;;6.47;100.00;101623.81;7773866;22;21314;-67
2024/03/05 07:33:49;;;;;;;13.50;9.37;;;;;;;6.67;100.00;101631.53;7779768;22;20314;-67
2024/03/05 07:37:10;;;;;;;16.10;10.97;;;;;;;6.56;100.00;101639.34;7775425;22;20214;-69
2024/03/05 07:40:31;;;;;;;9.37;8.43;;;;;;;6.77;100.00;101631.84;7775809;22;20463;-67
2024/03/05 07:43:53;;;;;;;10.23;8.17;;;;;;;6.45;100.00;101647.16;7783555;22;20469;-67
2024/03/05 07:47:14;;;;;;;11.60;9.93;;;;;;;6.59;100.00;101641.00;7772517;22;20211;-68
2024/03/05 07:50:35;;;;;;;14.57;8.40;;;;;;;6.53;100.00;101639.53;7776331;22;20217;-67
2024/03/05 07:53:57;;;;;;;12.27;10.63;;;;;;;7.05;100.00;101646.13;7783133;22;20297;-68
2024/03/05 07:57:17;;;;;;;11.83;8.13;;;;;;;7.25;100.00;101644.88;7775721;22;20206;-68
2024/03/05 08:00:40;;;;;;;10.70;9.40;;;;;;;6.95;100.00;101662.84;7769472;22;20218;-67
2024/03/05 08:04:00;;;;;;;11.47;8.40;;;;;;;6.91;100.00;101645.25;7782230;22;20214;-67
2024/03/05 08:07:22;;;;;;;9.50;7.40;;;;;;;7.12;100.00;101646.59;7770734;22;20210;-68
2024/03/05 08:10:44;;;;;;;7.80;7.00;;;;;;;6.73;100.00;101643.69;7775519;22;20584;-68
2024/03/05 08:14:07;;;;;;;10.17;7.60;;;;;;;6.81;100.00;101652.13;7780339;22;20221;-68
2024/03/05 08:17:29;;;;;;;7.73;5.93;;;;;;;7.24;100.00;101646.69;7754977;22;20653;-68
2024/03/05 08:20:50;;;;;;;7.53;6.47;;;;;;;7.49;100.00;101654.06;7752769;22;20210;-67
2024/03/05 08:24:11;;;;;;;13.40;9.77;;;;;;;7.33;100.00;101650.63;7780375;22;20215;-67
2024/03/05 08:27:32;;;;;;;8.60;6.70;;;;;;;7.42;100.00;101650.06;7777857;22;20289;-67
2024/03/05 08:30:53;;;;;;;8.63;6.93;;;;;;;7.60;100.00;101656.94;7776342;22;20223;-68
2024/03/05 08:34:15;;;;;;;13.53;8.00;;;;;;;7.65;100.00;101660.19;7782311;22;20281;-68
2024/03/05 08:37:36;;;;;;;8.00;7.07;;;;;;;7.53;100.00;101658.25;7773511;22;20215;-68
2024/03/05 08:40:58;;;;;;;10.93;6.77;;;;;;;7.81;100.00;101663.59;7778062;22;20210;-68
2024/03/05 08:44:19;;;;;;;9.07;6.53;;;;;;;7.73;100.00;101662.38;7780251;22;20264;-68
2024/03/05 08:47:42;;;;;;;7.40;6.53;;;;;;;7.88;100.00;101675.66;7771970;22;20207;-67
2024/03/05 08:51:04;;;;;;;9.33;6.00;;;;;;;7.67;100.00;101669.00;7773410;22;20207;-67
2024/03/05 08:54:30;;;;;;;8.13;6.77;;;;;;;7.64;100.00;101673.69;7782296;22;20613;-67
2024/03/05 08:57:53;;;;;;;6.17;5.07;;;;;;;7.74;100.00;101670.31;7776015;22;20645;-67
2024/03/05 09:01:15;;;;;;;9.20;6.23;;;;;;;8.15;100.00;101677.50;7765646;22;20474;-67
2024/03/05 09:04:35;;;;;;;9.60;6.37;;;;;;;8.10;100.00;101675.09;7779901;22;20214;-68
2024/03/05 09:07:57;;;;;;;8.73;6.80;;;;;;;8.34;100.00;101662.78;7776347;22;20214;-68
2024/03/05 09:11:18;;;;;;;9.70;7.20;;;;;;;8.33;100.00;101665.56;7773450;22;20218;-67
2024/03/05 09:14:39;;;;;;;7.63;6.83;;;;;;;8.53;100.00;101659.72;7780787;22;20213;-67
2024/03/05 09:18:00;;;;;;;8.40;6.53;;;;;;;8.22;100.00;101662.72;7772277;22;20222;-68
2024/03/05 09:21:21;;;;;;;6.93;6.17;;;;;;;8.38;100.00;101655.38;7777079;22;20289;-68
2024/03/05 09:24:44;;;;;;;8.37;6.33;;;;;;;8.83;100.00;101663.84;7780941;22;20498;-68
2024/03/05 09:28:05;;;;;;;8.23;7.10;;;;;;;8.94;100.00;101656.88;7755470;22;20214;-68
2024/03/05 09:31:26;;;;;;;12.57;6.43;;;;;;;9.21;100.00;101661.19;7775002;22;20214;-69
2024/03/05 09:34:47;;;;;;;6.50;5.80;;;;;;;9.58;100.00;101662.09;7781539;22;20214;-68
2024/03/05 09:38:08;;;;;;;10.87;9.70;;;;;;;9.44;100.00;101663.09;7771125;22;20222;-68
2024/03/05 09:41:35;;;;;;;7.07;5.93;;;;;;;9.33;100.00;101673.75;7778062;22;20456;-68
2024/03/05 09:44:56;;;;;;;11.30;7.00;;;;;;;9.95;100.00;101666.53;7782137;22;20572;-67
2024/03/05 09:48:19;;;;;;;7.90;6.83;;;;;;;10.13;100.00;101667.03;7777046;22;20210;-68
2024/03/05 09:51:40;;;;;;;15.30;7.17;;;;;;;9.72;100.00;101677.28;7778430;22;20543;-67
2024/03/05 09:55:01;;;;;;;8.73;6.43;;;;;;;9.80;100.00;101672.19;7780347;22;20215;-67
2024/03/05 09:58:34;;;;;;;8.23;5.87;;;;;;;10.79;100.00;101661.06;7781453;22;20214;-68
2024/03/05 10:01:55;;;;;;;6.77;6.07;;;;;;;10.81;100.00;101664.50;7769633;22;20571;-67
2024/03/05 10:05:16;;;;;;;8.53;6.70;;;;;;;11.64;100.00;101664.09;7777168;22;20207;-68
2024/03/05 10:08:37;;;;;;;10.03;6.67;;;;;;;12.54;100.00;101671.06;7780427;22;20301;-69
2024/03/05 10:11:58;;;;;;;8.43;5.70;;;;;;;14.00;96.52;101654.50;7765860;22;20222;-67
2024/03/05 10:15:24;;;;;;;11.23;6.37;;;;;;;16.00;82.78;101675.13;7777296;22;20211;-67
2024/03/05 10:18:47;;;;;;;5.33;4.83;;;;;;;17.65;69.79;101661.66;7779435;22;20252;-68
2024/03/05 10:22:10;;;;;;;16.20;5.83;;;;;;;15.42;65.08;101682.66;7773182;22;20214;-68
2024/03/05 10:25:32;;;;;;;10.17;5.00;;;;;;;16.57;64.63;101673.94;7775237;22;20214;-68
2024/03/05 10:28:53;;;;;;;6.80;4.57;;;;;;;14.56;65.83;101685.47;7780873;22;20451;-69
2024/03/05 10:32:17;;;;;;;6.00;5.23;;;;;;;14.04;70.65;101686.63;7768309;22;20492;-68
2024/03/05 10:35:38;;;;;;;8.20;4.73;;;;;;;13.53;70.87;101699.44;7749198;22;20210;-68
2024/03/05 10:38:59;;;;;;;14.27;4.87;;;;;;;13.13;77.14;101688.50;7773786;22;20222;-68
2024/03/05 10:42:20;;;;;;;5.90;4.60;;;;;;;12.81;77.31;101685.81;7774747;22;20199;-69
2024/03/05 10:45:41;;;;;;;6.10;4.93;;;;;;;13.60;76.17;101687.91;7761094;22;20210;-67
2024/03/05 10:49:07;;;;;;;7.83;5.60;;;;;;;12.70;76.83;101701.25;7778123;22;20210;-68
2024/03/05 10:52:29;;;;;;;9.20;6.73;;;;;;;18.01;66.33;101682.28;7775954;22;20202;-67
2024/03/05 10:55:53;;;;;;;9.03;5.17;;;;;;;16.36;59.21;101689.66;7775474;22;20218;-68
2024/03/05 10:59:40;;;;;;;5.63;4.17;;;;;;;13.85;65.43;101696.56;7778755;22;20214;-68
2024/03/05 11:03:05;;;;;;;6.35;4.57;;;;;;;19.18;54.95;101678.41;7768457;22;20264;-68
2024/03/05 11:06:28;;;;;;;4.65;3.70;;;;;;;18.94;48.70;101686.63;7769516;22;20211;-68
2024/03/05 11:09:50;;;;;;;5.10;4.60;;;;;;;18.26;47.12;101681.34;7765741;22;20210;-68
2024/03/05 11:13:13;;;;;;;6.15;4.30;;;;;;;15.34;55.71;101687.97;7778499;22;20309;-69
2024/03/05 11:16:34;;;;;;;5.32;4.20;;;;;;;15.77;57.73;101680.13;7774652;22;20210;-67
2024/03/05 11:19:56;;;;;;;8.68;4.15;;;;;;;17.50;53.58;101674.22;7778162;22;20257;-68
2024/03/05 11:23:18;;;;;;;9.07;5.13;;;;;;;15.75;53.46;101682.13;7778074;22;20210;-68
2024/03/05 11:26:40;;;;;;;7.13;4.20;;;;;;;19.62;45.53;101659.72;7770447;22;20210;-67
2024/03/05 11:30:17;;;;;;;5.78;4.65;;;;;;;20.53;40.14;101666.31;7777731;22;20218;-69
2024/03/05 11:33:40;;;;;;;5.47;4.85;;;;;;;21.00;40.30;101666.13;7774588;22;20222;-67
2024/03/05 11:37:10;;;;;;;6.15;4.20;;;;;;;20.49;39.52;101664.97;7772343;22;20289;-68
2024/03/05 11:40:34;;;;;;;5.38;3.97;;;;;;;19.00;39.06;101673.09;7766605;22;20511;-68
2024/03/05 11:43:55;;;;;;;4.97;4.47;;;;;;;16.56;45.98;101672.22;7775615;22;20298;-68
2024/03/05 11:47:20;;;;;;;6.82;4.40;;;;;;;15.43;52.74;101669.97;7763600;22;20478;-68
2024/03/05 11:50:40;;;;;;;7.05;6.35;;;;;;;14.85;54.54;101674.63;7773581;22;20210;-68
2024/03/05 11:54:01;;;;;;;5.45;4.65;;;;;;;12.85;59.44;101673.72;7782010;22;20210;-67
2024/03/05 11:57:24;;;;;;;5.17;3.90;;;;;;;12.56;63.60;101688.00;7774408;22;20202;-67
2024/03/05 12:00:47;;;;;;;4.67;4.27;;;;;;;13.72;65.90;101679.69;7761110;22;20214;-67
2024/03/05 12:04:09;;;;;;;5.57;4.80;;;;;;;18.66;49.08;101672.44;7778162;22;20222;-68
2024/03/05 12:07:30;;;;;;;4.90;4.32;;;;;;;17.58;45.66;101670.66;7775207;22;20248;-67
2024/03/05 12:10:52;;;;;;;4.95;4.55;;;;;;;16.12;50.38;101675.78;7770656;22;20222;-68
2024/03/05 12:14:15;;;;;;;4.10;3.55;;;;;;;14.75;55.63;101693.63;7764332;22;20210;-68
2024/03/05 12:17:38;;;;;;;6.37;4.10;;;;;;;14.76;51.36;101680.91;7772864;22;20564;-68
2024/03/05 12:20:59;;;;;;;4.75;4.35;;;;;;;17.02;49.78;101677.38;7774207;22;20218;-69
2024/03/05 12:24:21;;;;;;;6.78;4.53;;;;;;;17.77;45.74;101678.59;7779201;22;20218;-67
2024/03/05 12:27:47;;;;;;;4.60;4.03;;;;;;;16.71;46.93;101695.16;7779624;22;20565;-68
2024/03/05 12:31:10;;;;;;;4.65;3.67;;;;;;;17.22;44.73;101684.38;7758574;22;20419;-68
2024/03/05 12:34:32;;;;;;;4.68;4.28;;;;;;;19.22;42.22;101682.50;7780722;22;20257;-67
2024/03/05 12:37:54;;;;;;;5.43;4.18;;;;;;;21.65;37.00;101677.34;7775455;22;20214;-68
2024/03/05 12:41:19;;;;;;;5.13;3.95;;;;;;;17.83;39.58;101684.28;7778313;22;20236;-69
2024/03/05 12:44:41;;;;;;;4.60;4.20;;;;;;;15.59;44.04;101692.78;7779069;22;20801;-67
2024/03/05 12:48:05;;;;;;;3.45;3.13;;;;;;;20.76;37.35;101685.53;7774451;22;20214;-69
2024/03/05 12:51:26;;;;;;;5.32;3.95;;;;;;;21.11;33.73;101671.22;7778412;22;20222;-69
2024/03/05 12:54:57;;;;;;;3.97;3.60;;;;;;;19.14;36.44;101682.50;7779974;22;20474;-68
2024/03/05 12:58:18;;;;;;;4.00;3.55;;;;;;;20.12;34.44;101678.50;7783213;22;20566;-67
2024/03/05 13:01:39;;;;;;;4.65;4.05;;;;;;;18.01;38.85;101687.75;7772109;22;20286;-69
2024/03/05 13:05:02;;;;;;;5.88;4.03;;;;;;;16.49;41.75;101692.88;7777989;22;20584;-67
2024/03/05 13:08:23;;;;;;;4.57;4.18;;;;;;;15.62;45.20;101697.94;7757868;22;20210;-68
2024/03/05 13:11:44;;;;;;;4.05;3.65;;;;;;;16.58;41.95;101702.88;7753795;22;20211;-69
2024/03/05 13:15:06;;;;;;;5.82;4.07;;;;;;;16.02;43.23;101705.75;7777897;22;20214;-67
2024/03/05 13:18:27;;;;;;;3.70;3.35;;;;;;;15.62;42.31;101705.22;7738005;22;20555;-68
2024/03/05 13:21:49;;;;;;;4.13;3.70;;;;;;;16.29;42.92;101704.91;7777755;22;20210;-67
2024/03/05 13:25:15;;;;;;;10.23;8.20;;;;;;;16.37;42.12;101713.16;7775994;22;20461;-67
2024/03/05 13:28:36;;;;;;;4.77;4.23;;;;;;;14.83;45.03;101703.78;7782738;22;20256;-68
2024/03/05 13:31:59;;;;;;;3.90;3.13;;;;;;;15.04;46.76;101704.47;7765546;22;20210;-68
2024/03/05 13:35:20;;;;;;;4.60;4.20;;;;;;;15.06;46.67;101703.31;7778172;22;20456;-67
2024/03/05 13:38:42;;;;;;;5.37;3.97;;;;;;;13.95;49.62;101706.47;7778319;22;20281;-68
2024/03/05 13:42:04;;;;;;;3.80;3.47;;;;;;;14.38;48.65;101706.16;7775264;22;20218;-68
2024/03/05 13:45:27;;;;;;;3.93;3.40;;;;;;;13.45;52.48;101710.94;7753055;22;20268;-68
2024/03/05 13:48:48;;;;;;;4.40;4.00;;;;;;;12.41;55.86;101713.66;7777048;22;20313;-68
2024/03/05 13:52:10;;;;;;;9.07;4.40;;;;;;;11.52;59.41;101707.44;7775573;22;20222;-68
2024/03/05 13:55:33;;;;;;;8.00;4.63;;;;;;;11.69;63.33;101720.50;7775315;22;20210;-69
2024/03/05 13:58:54;;;;;;;5.53;4.73;;;;;;;11.96;62.88;101720.97;7776916;22;20923;-68
2024/03/05 14:02:15;;;;;;;4.53;3.87;;;;;;;11.98;61.60;101722.59;7775192;22;20210;-69
2024/03/05 14:05:36;;;;;;;5.10;4.60;;;;;;;10.70;62.77;101718.44;7776591;22;20214;-68
2024/03/05 14:08:57;;;;;;;6.60;3.77;;;;;;;10.94;65.30;101730.91;7778528;22;20552;-68
2024/03/05 14:12:19;;;;;;;4.70;4.13;;;;;;;10.85;64.13;101723.50;7774455;22;20468;-69
2024/03/05 14:15:40;;;;;;;5.27;3.50;;;;;;;11.04;62.57;101731.03;7777427;22;20214;-67
2024/03/05 14:19:03;;;;;;;5.13;4.17;;;;;;;11.13;62.45;101735.72;7779988;22;20622;-68
2024/03/05 14:22:24;;;;;;;4.10;3.67;;;;;;;13.26;58.41;101724.38;7772199;22;20210;-68
2024/03/05 14:25:46;;;;;;;4.87;3.90;;;;;;;12.62;56.08;101731.63;7776930;22;20293;-69
2024/03/05 14:29:09;;;;;;;7.13;6.43;;;;;;;11.75;58.04;101733.50;7781327;22;20257;-69
2024/03/05 14:32:30;;;;;;;9.60;6.67;;;;;;;11.79;58.56;101727.75;7723058;22;20214;-68
2024/03/05 14:35:51;;;;;;;7.87;4.60;;;;;;;11.63;59.19;101732.63;7775966;22;20286;-67
2024/03/05 14:39:14;;;;;;;5.97;3.90;;;;;;;11.03;61.47;101732.91;7740623;23;20417;-70
2024/03/05 14:42:36;;;;;;;5.10;3.73;;;;;;;10.85;62.62;101733.41;7733914;23;20276;-68
2024/03/05 14:45:58;;;;;;;5.43;4.97;;;;;;;10.47;65.17;101732.78;7736578;23;20218;-67
2024/03/05 14:49:28;;;;;;;7.67;4.60;;;;;;;10.70;66.73;101742.69;7739566;23;20211;-70
2024/03/05 14:52:53;;;;;;;8.33;7.50;;;;;;;11.07;66.91;101744.31;7737220;23;20211;-70
2024/03/05 14:56:14;;;;;;;6.37;5.67;;;;;;;11.71;65.62;101738.31;7737063;23;20269;-68
2024/03/05 14:59:36;;;;;;;6.07;4.67;;;;;;;12.35;63.15;101742.03;7733386;23;20226;-68
2024/03/05 15:02:58;;;;;;;5.93;4.07;;;;;;;10.57;66.36;101747.28;7732200;23;20683;-68
2024/03/05 15:06:19;;;;;;;7.63;5.50;;;;;;;9.96;70.12;101756.28;7738080;23;20219;-68
2024/03/05 15:09:40;;;;;;;10.37;5.23;;;;;;;9.79;72.75;101760.19;7742432;23;20211;-67
2024/03/05 15:13:01;;;;;;;8.33;5.00;;;;;;;9.71;73.38;101754.47;7737892;23;20465;-68
2024/03/05 15:16:22;;;;;;;4.37;3.97;;;;;;;9.68;73.73;101770.00;7736230;23;20477;-68
2024/03/05 15:19:45;;;;;;;6.43;4.47;;;;;;;9.49;76.82;101762.38;7739749;23;20573;-68
2024/03/05 15:23:06;;;;;;;4.87;4.47;;;;;;;9.55;77.73;101759.25;7739888;23;20218;-68
2024/03/05 15:26:27;;;;;;;6.23;4.60;;;;;;;9.75;77.97;101757.81;7738269;23;20230;-68
2024/03/05 15:29:48;;;;;;;8.77;5.40;;;;;;;9.47;76.89;101759.75;7743554;23;20215;-69
2024/03/05 15:33:09;;;;;;;4.63;3.63;;;;;;;10.05;99.98;101756.50;7737613;23;20290;-68
2024/03/05 15:36:32;;;;;;;6.43;4.07;;;;;;;10.60;95.68;101753.28;7742169;22;20218;-68